KSSI/SSI METAR and TAF weather

Enter ICAO airport designator
Station Type Date Time Source
KSSI METAR 2022/01/26 14:53 UTC NOAA

KSSI 261453Z AUTO 35006KT 10SM FEW050 BKN080 BKN120 13/06 A3016 RMK AO2 SLP215 T01330061 53009


Station Type Date Time Source
KSSI Decoded METAR 2022/01/26 14:53 UTC NOAA

BRUNSWICK MC KINNON AIRPORT , GA, United States (KSSI) 31-09N 081-23W 6M
Jan 26, 2022 - 09:53 AM EST / 2022.01.26 1453 UTC
Wind: from the N (350 degrees) at 7 MPH (6 KT):0
Visibility: 10 mile(s):0
Sky conditions: mostly cloudy
Temperature: 55.9 F (13.3 C)
Dew Point: 43.0 F (6.1 C)
Relative Humidity: 61%
Pressure (altimeter): 30.16 in. Hg (1021 hPa)
Pressure tendency: 0.03 inches (0.9 hPa) higher than three hours ago
ob: KSSI 261453Z AUTO 35006KT 10SM FEW050 BKN080 BKN120 13/06 A3016 RMK AO2 SLP215 T01330061 53009
cycle: 15

Station Type Date Time Source
KSSI TAF 2022/01/26 12:22 UTC NOAA

TAF KSSI 261120Z 2612/2712 VRB02KT P6SM -SHRA SCT025 OVC070
FM261500 02009KT P6SM SCT030 OVC100
FM270300 02011KT P6SM SCT015 OVC025

Example: see airport list